createdAt,value
2023-03-22T00:01:53.643Z,100706.84
2023-03-22T00:06:55.324Z,100701.53
2023-03-22T00:11:56.848Z,100692.88
2023-03-22T00:16:58.363Z,100694.66
2023-03-22T00:22:01.299Z,100679.09
2023-03-22T00:27:03.380Z,100674.72
2023-03-22T00:32:05.247Z,100665.34
2023-03-22T00:37:07.996Z,100660.19
2023-03-22T00:42:09.686Z,100653.38
2023-03-22T00:47:12.208Z,100657.94
2023-03-22T00:52:13.816Z,100652.81
2023-03-22T00:57:15.473Z,100643.44
2023-03-22T01:02:17.432Z,100640.06
2023-03-22T01:07:21.456Z,100627.22
2023-03-22T01:12:23.078Z,100629.00
2023-03-22T01:17:24.677Z,100623.94
2023-03-22T01:22:26.328Z,100620.63
2023-03-22T01:27:28.830Z,100623.25
2023-03-22T01:32:30.523Z,100623.41
2023-03-22T01:37:32.555Z,100614.72
2023-03-22T01:42:34.655Z,100612.13
2023-03-22T01:47:49.294Z,100615.59
2023-03-22T01:52:53.119Z,100608.66
2023-03-22T01:58:07.078Z,100600.81
2023-03-22T02:03:29.298Z,100589.50
2023-03-22T02:08:33.972Z,100590.41
2023-03-22T02:13:56.613Z,100584.22
2023-03-22T02:19:48.742Z,100582.44
2023-03-22T02:25:19.209Z,100572.06
2023-03-22T02:30:59.931Z,100572.06
2023-03-22T02:36:52.790Z,100569.41
2023-03-22T02:42:08.248Z,100565.22
2023-03-22T02:47:29.959Z,100563.63
2023-03-22T02:52:40.601Z,100558.53
2023-03-22T02:57:46.444Z,100557.81
2023-03-22T03:02:56.940Z,100550.06
2023-03-22T03:08:02.398Z,100545.59
2023-03-22T03:13:05.607Z,100549.16
2023-03-22T03:18:16.248Z,100554.38
2023-03-22T03:23:38.139Z,100546.66
2023-03-22T03:29:07.805Z,100544.81
2023-03-22T03:34:21.764Z,100535.19
2023-03-22T03:39:27.366Z,100536.03
2023-03-22T03:44:31.628Z,100527.25
2023-03-22T03:49:33.519Z,100527.31
2023-03-22T03:54:35.218Z,100529.03
2023-03-22T03:59:39.266Z,100524.66
2023-03-22T04:04:49.019Z,100520.28
2023-03-22T04:09:50.961Z,100522.78
2023-03-22T04:15:00.963Z,100512.44
2023-03-22T04:20:06.163Z,100514.94
2023-03-22T04:25:12.818Z,100508.66
2023-03-22T04:30:22.882Z,100503.56
2023-03-22T04:35:44.339Z,100501.75
2023-03-22T04:40:46.713Z,100497.47
2023-03-22T04:45:58.052Z,100506.13
2023-03-22T04:51:06.862Z,100491.28
2023-03-22T04:56:15.595Z,100487.81
2023-03-22T05:01:18.358Z,100479.09
2023-03-22T05:06:22.677Z,100471.25
2023-03-22T05:11:36.235Z,100473.97
2023-03-22T05:16:55.537Z,100470.44
2023-03-22T05:21:58.162Z,100466.06
2023-03-22T05:27:10.840Z,100457.31
2023-03-22T05:32:12.791Z,100453.13
2023-03-22T05:37:15.102Z,100457.53
2023-03-22T05:42:24.716Z,100453.38
2023-03-22T05:47:26.607Z,100452.72
2023-03-22T05:52:34.297Z,100449.34
2023-03-22T05:58:05.188Z,100439.03
2023-03-22T06:03:10.046Z,100433.88
2023-03-22T06:08:17.318Z,100430.47
2023-03-22T06:13:20.354Z,100431.41
2023-03-22T06:18:22.752Z,100430.56
2023-03-22T06:23:32.416Z,100424.47
2023-03-22T06:28:34.132Z,100426.28
2023-03-22T06:33:36.864Z,100422.91
2023-03-22T06:38:49.791Z,100425.59
2023-03-22T06:43:52.040Z,100404.75
2023-03-22T06:49:12.783Z,100421.34
2023-03-22T06:54:16.689Z,100408.38
2023-03-22T06:59:18.578Z,100410.13
2023-03-22T07:04:20.397Z,100411.03
2023-03-22T07:09:24.796Z,100410.22
2023-03-22T07:14:28.795Z,100405.91
2023-03-22T07:19:42.763Z,100398.06
2023-03-22T07:24:56.026Z,100399.00
2023-03-22T07:30:00.553Z,100393.00
2023-03-22T07:35:03.378Z,100386.19
2023-03-22T07:40:05.982Z,100388.16
2023-03-22T07:45:08.478Z,100385.88
2023-03-22T07:50:19.278Z,100383.47
2023-03-22T07:55:25.381Z,100364.16
2023-03-22T08:00:27.743Z,100376.38
2023-03-22T08:05:54.799Z,100364.31
2023-03-22T08:10:56.615Z,100357.75
2023-03-22T08:15:58.572Z,100364.81
2023-03-22T08:21:00.381Z,100355.16
2023-03-22T08:26:05.202Z,100369.06
2023-03-22T08:31:15.118Z,100364.59
2023-03-22T08:36:21.595Z,100368.13
2023-03-22T08:41:31.577Z,100368.94
2023-03-22T08:46:33.486Z,100360.13
2023-03-22T08:51:39.231Z,100373.22
2023-03-22T08:56:48.198Z,100381.06
2023-03-22T09:02:04.651Z,100360.97
2023-03-22T09:07:06.451Z,100347.13
2023-03-22T09:12:09.275Z,100336.97
2023-03-22T09:17:11.089Z,100331.06
2023-03-22T09:22:12.715Z,100345.84
2023-03-22T09:27:21.538Z,100343.06
2023-03-22T09:32:24.587Z,100348.41
2023-03-22T09:37:32.847Z,100355.34
2023-03-22T09:42:48.404Z,100355.34
2023-03-22T09:47:54.790Z,100351.00
2023-03-22T09:52:57.264Z,100355.41
2023-03-22T09:58:11.901Z,100338.78
2023-03-22T10:03:19.803Z,100351.13
2023-03-22T10:08:27.052Z,100352.06
2023-03-22T10:13:34.744Z,100351.25
2023-03-22T10:18:38.925Z,100338.13
2023-03-22T10:23:47.569Z,100356.47
2023-03-22T10:29:04.453Z,100332.84
2023-03-22T10:34:08.015Z,100333.81
2023-03-22T10:39:16.774Z,100319.81
2023-03-22T10:44:20.329Z,100321.53
2023-03-22T10:49:33.170Z,100337.31
2023-03-22T10:54:36.309Z,100319.91
2023-03-22T10:59:52.656Z,100316.44
2023-03-22T11:04:57.003Z,100335.72
2023-03-22T11:10:08.552Z,100331.34
2023-03-22T11:15:26.776Z,100319.91
2023-03-22T11:20:29.913Z,100333.03
2023-03-22T11:25:36.330Z,100353.13
2023-03-22T11:30:38.151Z,100347.78
2023-03-22T11:35:39.826Z,100351.25
2023-03-22T11:40:52.026Z,100339.00
2023-03-22T11:45:56.628Z,100346.75
2023-03-22T11:51:13.684Z,100347.50
2023-03-22T11:56:26.075Z,100344.72
2023-03-22T12:01:38.413Z,100341.13
2023-03-22T12:06:41.512Z,100352.31
2023-03-22T12:11:50.230Z,100346.97
2023-03-22T12:16:51.675Z,100352.19
2023-03-22T12:21:53.724Z,100341.66
2023-03-22T12:26:59.966Z,100343.44
2023-03-22T12:32:07.068Z,100345.25
2023-03-22T12:37:14.890Z,100327.91
2023-03-22T12:42:50.749Z,100326.16
2023-03-22T12:48:11.985Z,100312.28
2023-03-22T12:53:17.540Z,100316.75
2023-03-22T12:58:22.732Z,100316.84
2023-03-22T13:03:53.825Z,100313.44
2023-03-22T13:09:08.834Z,100311.78
2023-03-22T13:14:51.208Z,100327.47
2023-03-22T13:20:21.468Z,100335.22
2023-03-22T13:25:38.239Z,100335.97
2023-03-22T13:30:52.706Z,100347.25
2023-03-22T13:36:22.901Z,100352.50
2023-03-22T13:41:29.710Z,100360.19
2023-03-22T13:46:37.299Z,100343.31
2023-03-22T13:51:39.831Z,100339.72
2023-03-22T13:56:47.793Z,100350.97
2023-03-22T14:01:52.558Z,100348.38
2023-03-22T14:07:13.316Z,100349.28
2023-03-22T14:12:24.256Z,100344.03
2023-03-22T14:17:50.612Z,100363.25
